Time;durP1;ratioP1;P1;durP2;ratioP2;P2;SDS_P1;SDS_P2;PMS_P1;PMS_P2;Temp;Humidity;BMP_temperature;BMP_pressure;BME280_temperature;BME280_humidity;BME280_pressure;Samples;Min_cycle;Max_cycle;Signal;HPM_P1;HPM_P2
2023/12/11 00:01:09;;;;;;;36.03;7.32;;;9.40;99.90;;;;;;5116859;27;20039;-66
2023/12/11 00:03:35;;;;;;;34.65;5.55;;;9.40;99.90;;;;;;5117533;27;20042;-66
2023/12/11 00:06:00;;;;;;;41.53;7.30;;;9.40;99.90;;;;;;5111148;27;20037;-67
2023/12/11 00:08:26;;;;;;;35.90;6.47;;;9.40;99.90;;;;;;5112662;27;20035;-66
2023/12/11 00:10:51;;;;;;;46.60;8.27;;;9.40;99.90;;;;;;5111271;27;20525;-66
2023/12/11 00:13:17;;;;;;;38.53;6.13;;;9.30;99.90;;;;;;5111969;27;20169;-66
2023/12/11 00:15:43;;;;;;;37.07;6.63;;;9.30;99.90;;;;;;5113439;27;20031;-66
2023/12/11 00:18:08;;;;;;;44.20;6.73;;;9.30;99.90;;;;;;5113285;27;20280;-66
2023/12/11 00:20:34;;;;;;;37.10;6.90;;;9.30;99.90;;;;;;5110133;27;20032;-66
2023/12/11 00:23:00;;;;;;;41.28;7.30;;;9.30;99.90;;;;;;5114298;27;20038;-66
2023/12/11 00:25:27;;;;;;;32.90;6.82;;;9.30;99.90;;;;;;5112694;28;20092;-66
2023/12/11 00:27:53;;;;;;;41.05;6.72;;;9.30;99.90;;;;;;5109906;28;20117;-66
2023/12/11 00:30:19;;;;;;;35.50;6.32;;;9.30;99.90;;;;;;5110376;27;20039;-66
2023/12/11 00:32:44;;;;;;;49.80;6.63;;;9.30;99.90;;;;;;5112150;28;20520;-66
2023/12/11 00:35:10;;;;;;;38.77;6.50;;;9.30;99.90;;;;;;5112712;27;20269;-66
2023/12/11 00:37:35;;;;;;;40.53;6.35;;;9.30;99.90;;;;;;5114149;27;20092;-66
2023/12/11 00:40:01;;;;;;;35.60;6.43;;;9.30;99.90;;;;;;5112735;27;20028;-66
2023/12/11 00:42:27;;;;;;;36.55;7.45;;;9.30;99.90;;;;;;5115575;28;20558;-66
2023/12/11 00:44:52;;;;;;;46.17;7.57;;;9.30;99.90;;;;;;5113118;28;20043;-66
2023/12/11 00:47:18;;;;;;;40.97;7.43;;;9.30;99.90;;;;;;5112718;28;20035;-66
2023/12/11 00:49:43;;;;;;;35.80;6.93;;;9.30;99.90;;;;;;5114092;28;20281;-66
2023/12/11 00:52:09;;;;;;;46.83;7.03;;;9.30;99.90;;;;;;5113145;28;20409;-66
2023/12/11 00:54:35;;;;;;;38.27;7.60;;;9.30;99.90;;;;;;5115128;28;20067;-67
2023/12/11 00:57:00;;;;;;;33.17;5.80;;;9.20;99.90;;;;;;5110761;28;20387;-66
2023/12/11 00:59:26;;;;;;;31.20;5.23;;;9.20;99.90;;;;;;5112087;28;20032;-67
2023/12/11 01:01:51;;;;;;;39.43;6.57;;;9.30;99.90;;;;;;5110942;28;20027;-66
2023/12/11 01:04:17;;;;;;;32.53;6.00;;;9.20;99.90;;;;;;5112570;28;20051;-66
2023/12/11 01:06:43;;;;;;;38.35;6.82;;;9.20;99.90;;;;;;5112075;28;20078;-66
2023/12/11 01:09:08;;;;;;;38.87;6.20;;;9.20;99.90;;;;;;5113562;28;20027;-66
2023/12/11 01:11:34;;;;;;;32.30;6.27;;;9.20;99.90;;;;;;5113937;27;20276;-66
2023/12/11 01:14:00;;;;;;;39.35;6.93;;;9.30;99.90;;;;;;5115358;27;20504;-66
2023/12/11 01:16:25;;;;;;;33.80;4.93;;;9.20;99.90;;;;;;5119629;27;20074;-66
2023/12/11 01:18:51;;;;;;;42.23;7.60;;;9.20;99.90;;;;;;5117118;27;20345;-66
2023/12/11 01:21:17;;;;;;;53.15;7.20;;;9.20;99.90;;;;;;5118819;27;20498;-66
2023/12/11 01:23:42;;;;;;;33.55;6.82;;;9.20;99.90;;;;;;5118167;27;21084;-68
2023/12/11 01:26:08;;;;;;;41.60;7.53;;;9.20;99.90;;;;;;5118942;27;20548;-66
2023/12/11 01:28:34;;;;;;;35.58;6.53;;;9.20;99.90;;;;;;5116180;27;20120;-66
2023/12/11 01:31:00;;;;;;;27.80;5.87;;;9.20;99.90;;;;;;5113529;27;20059;-66
2023/12/11 01:33:25;;;;;;;38.93;7.57;;;9.20;99.90;;;;;;5114870;27;20379;-66
2023/12/11 01:35:51;;;;;;;33.03;6.23;;;9.20;99.90;;;;;;5114490;27;20418;-66
2023/12/11 01:38:17;;;;;;;50.00;7.22;;;9.20;99.90;;;;;;5114925;27;20381;-66
2023/12/11 01:40:43;;;;;;;34.35;6.25;;;9.30;99.90;;;;;;5114198;27;20050;-66
2023/12/11 01:43:16;;;;;;;35.60;6.95;;;9.30;99.90;;;;;;5115225;27;20494;-66
2023/12/11 01:45:42;;;;;;;39.42;6.10;;;9.30;99.90;;;;;;5114454;27;20054;-66
2023/12/11 01:48:09;;;;;;;51.25;8.40;;;9.40;99.90;;;;;;5114780;27;20514;-65
2023/12/11 01:50:35;;;;;;;43.45;7.60;;;9.40;99.90;;;;;;5116635;27;20051;-66
2023/12/11 01:53:01;;;;;;;;;;;9.40;99.90;;;;;;5114257;27;20135;-65
2023/12/11 01:55:30;;;;;;;44.63;8.25;;;9.40;99.90;;;;;;5117945;27;20386;-66
2023/12/11 01:57:56;;;;;;;48.00;7.10;;;9.40;99.90;;;;;;5119347;27;20066;-67
2023/12/11 02:00:22;;;;;;;48.95;8.60;;;9.40;99.90;;;;;;5121444;27;20109;-66
2023/12/11 02:02:48;;;;;;;;;;;9.40;99.90;;;;;;5116613;27;20450;-66
2023/12/11 02:05:14;;;;;;;;;;;9.50;99.90;;;;;;5117563;27;19916;-66
2023/12/11 02:07:40;;;;;;;;;;;9.50;99.90;;;;;;5114016;27;19925;-66
2023/12/11 02:10:06;;;;;;;;;;;9.50;99.90;;;;;;5115914;27;20306;-66
2023/12/11 02:12:31;;;;;;;;;;;9.50;99.90;;;;;;5115118;27;20006;-65
2023/12/11 02:14:57;;;;;;;;;;;9.40;99.90;;;;;;5112078;27;19931;-66
2023/12/11 02:17:22;;;;;;;;;;;9.50;99.90;;;;;;5116289;27;20506;-66
2023/12/11 02:19:48;;;;;;;;;;;9.50;99.90;;;;;;5115582;27;19916;-66
2023/12/11 02:22:14;;;;;;;;;;;9.50;99.90;;;;;;5117821;27;19969;-66
2023/12/11 02:24:43;;;;;;;;;;;9.50;99.90;;;;;;5115643;27;19968;-66
2023/12/11 02:27:09;;;;;;;;;;;9.50;99.90;;;;;;5112782;27;19916;-66
2023/12/11 02:29:34;;;;;;;;;;;9.50;99.90;;;;;;5114493;27;19922;-66
2023/12/11 02:32:00;;;;;;;;;;;9.50;99.90;;;;;;5111443;27;19916;-66
2023/12/11 02:34:25;;;;;;;;;;;9.50;99.90;;;;;;5115846;27;20049;-66
2023/12/11 02:36:51;;;;;;;;;;;9.50;99.90;;;;;;5115271;27;19923;-66
2023/12/11 02:39:16;;;;;;;;;;;9.50;99.90;;;;;;5116250;27;19920;-66
2023/12/11 02:41:42;;;;;;;;;;;9.50;99.90;;;;;;5113886;27;19921;-66
2023/12/11 02:44:07;;;;;;;;;;;9.50;99.90;;;;;;5111100;27;19920;-66
2023/12/11 02:46:33;;;;;;;;;;;9.50;99.90;;;;;;5111588;27;20433;-66
2023/12/11 02:48:58;;;;;;;;;;;9.50;99.90;;;;;;5112960;27;20386;-66
2023/12/11 02:51:24;;;;;;;;;;;9.40;99.90;;;;;;5113126;27;20373;-66
2023/12/11 02:53:49;;;;;;;;;;;9.50;99.90;;;;;;5114124;27;19963;-66
2023/12/11 02:56:15;;;;;;;;;;;9.50;99.90;;;;;;5117129;27;20356;-66
2023/12/11 02:58:43;;;;;;;;;;;9.50;99.90;;;;;;5113542;27;20413;-67
2023/12/11 03:01:08;;;;;;;;;;;9.50;99.90;;;;;;5115227;27;19943;-66
2023/12/11 03:03:34;;;;;;;;;;;9.60;99.90;;;;;;5114018;27;19989;-65
2023/12/11 03:06:03;;;;;;;;;;;9.60;99.90;;;;;;5116012;27;19998;-66
2023/12/11 03:08:28;;;;;;;;;;;9.50;99.90;;;;;;5116827;27;19915;-66
2023/12/11 03:10:54;;;;;;;;;;;9.60;99.90;;;;;;5115413;27;20286;-66
2023/12/11 03:13:19;;;;;;;;;;;9.60;99.90;;;;;;5113606;27;19927;-66
2023/12/11 03:15:45;;;;;;;;;;;9.60;99.90;;;;;;5116666;27;19941;-66
2023/12/11 03:18:10;;;;;;;;;;;9.60;99.90;;;;;;5113553;27;19915;-66
2023/12/11 03:20:36;;;;;;;;;;;9.70;99.90;;;;;;5112367;27;20445;-66
2023/12/11 03:23:01;;;;;;;;;;;9.70;99.90;;;;;;5112254;27;19916;-66
2023/12/11 03:25:27;;;;;;;;;;;9.70;99.90;;;;;;5114147;27;20102;-66
2023/12/11 03:27:52;;;;;;;;;;;9.70;99.90;;;;;;5112854;27;20314;-66
2023/12/11 03:30:18;;;;;;;;;;;9.70;99.90;;;;;;5115712;27;19920;-66
2023/12/11 03:32:43;;;;;;;;;;;9.70;99.90;;;;;;5113319;27;20349;-66
2023/12/11 03:35:09;;;;;;;;;;;9.70;99.90;;;;;;5115841;27;20002;-66
2023/12/11 03:37:34;;;;;;;;;;;9.70;99.90;;;;;;5114124;27;19915;-66
2023/12/11 03:40:00;;;;;;;;;;;9.70;99.90;;;;;;5114055;27;20106;-65
2023/12/11 03:42:25;;;;;;;;;;;9.60;99.90;;;;;;5116092;27;20698;-66
2023/12/11 03:44:51;;;;;;;;;;;9.70;99.90;;;;;;5114828;27;19923;-66
2023/12/11 03:47:17;;;;;;;;;;;9.70;99.90;;;;;;5113307;27;19919;-67
2023/12/11 03:49:43;;;;;;;;;;;9.70;99.90;;;;;;5114704;27;19916;-66
2023/12/11 03:52:08;;;;;;;;;;;9.70;99.90;;;;;;5115156;27;19922;-66
2023/12/11 03:54:34;;;;;;;;;;;9.70;99.90;;;;;;5111309;27;19962;-66
2023/12/11 03:56:59;;;;;;;;;;;9.70;99.90;;;;;;5113324;27;20003;-66
2023/12/11 03:59:25;;;;;;;;;;;9.70;99.90;;;;;;5113941;27;20346;-66
2023/12/11 04:01:50;;;;;;;;;;;9.70;99.90;;;;;;5110584;27;19919;-66
2023/12/11 04:04:16;;;;;;;;;;;9.70;99.90;;;;;;5114339;27;19915;-66
2023/12/11 04:06:41;;;;;;;;;;;9.60;99.90;;;;;;5114538;27;19922;-66
2023/12/11 04:09:07;;;;;;;;;;;9.70;99.90;;;;;;5114161;27;20297;-66
2023/12/11 04:11:34;;;;;;;;;;;9.70;99.90;;;;;;5115168;27;19915;-66
2023/12/11 04:14:00;;;;;;;;;;;9.70;99.90;;;;;;5112865;27;20360;-66
2023/12/11 04:16:25;;;;;;;;;;;9.70;99.90;;;;;;5098146;27;19919;-67
2023/12/11 04:18:51;;;;;;;;;;;9.70;99.90;;;;;;5116704;27;19916;-66
2023/12/11 04:21:17;;;;;;;;;;;9.70;99.90;;;;;;5116089;27;19919;-66
2023/12/11 04:23:42;;;;;;;;;;;9.70;99.90;;;;;;5112521;27;20421;-66
2023/12/11 04:26:08;;;;;;;;;;;9.80;99.90;;;;;;5115929;27;19915;-66
2023/12/11 04:28:33;;;;;;;;;;;9.80;99.90;;;;;;5115338;27;19942;-66
2023/12/11 04:30:59;;;;;;;;;;;9.80;99.90;;;;;;5113053;27;20388;-66
2023/12/11 04:33:24;;;;;;;;;;;9.80;99.90;;;;;;5113152;27;19919;-66
2023/12/11 04:35:50;;;;;;;;;;;9.80;99.90;;;;;;5111219;27;19915;-66
2023/12/11 04:38:15;;;;;;;;;;;9.80;99.90;;;;;;5112078;28;19993;-66
2023/12/11 04:40:41;;;;;;;;;;;9.80;99.90;;;;;;5112063;28;19962;-66
2023/12/11 04:43:06;;;;;;;;;;;9.80;99.90;;;;;;5115527;27;19927;-65
2023/12/11 04:45:32;;;;;;;;;;;9.80;99.90;;;;;;5113384;28;19930;-66
2023/12/11 04:47:57;;;;;;;;;;;9.80;99.90;;;;;;5110951;28;20393;-66
2023/12/11 04:50:23;;;;;;;;;;;9.80;99.90;;;;;;5114235;28;19975;-67
2023/12/11 04:52:48;;;;;;;;;;;9.80;99.90;;;;;;5112910;28;19924;-66
2023/12/11 04:55:14;;;;;;;;;;;9.80;99.90;;;;;;5115534;28;20056;-66
2023/12/11 04:57:39;;;;;;;;;;;9.80;99.90;;;;;;5114616;28;20370;-65
2023/12/11 05:00:05;;;;;;;;;;;9.80;99.90;;;;;;5112999;28;19992;-66
2023/12/11 05:02:31;;;;;;;;;;;9.80;99.90;;;;;;5112825;28;19915;-66
2023/12/11 05:04:56;;;;;;;;;;;9.80;99.90;;;;;;5096084;28;19920;-66
2023/12/11 05:07:22;;;;;;;;;;;9.80;99.90;;;;;;5112974;28;20285;-66
2023/12/11 05:09:48;;;;;;;;;;;9.80;99.90;;;;;;5114487;28;19920;-65
2023/12/11 05:12:13;;;;;;;;;;;9.70;99.90;;;;;;5111459;28;19919;-66
2023/12/11 05:14:39;;;;;;;;;;;9.80;99.90;;;;;;5112126;28;20386;-66
2023/12/11 05:17:04;;;;;;;;;;;9.70;99.90;;;;;;5112782;28;19967;-66
2023/12/11 05:19:30;;;;;;;;;;;9.70;99.90;;;;;;5110915;28;19922;-66
2023/12/11 05:21:58;;;;;;;;;;;9.70;99.90;;;;;;5110308;28;20048;-67
2023/12/11 05:24:24;;;;;;;;;;;9.70;99.90;;;;;;5111006;28;19923;-66
2023/12/11 05:26:50;;;;;;;;;;;9.70;99.90;;;;;;5111819;28;19923;-66
2023/12/11 05:29:15;;;;;;;;;;;9.70;99.90;;;;;;5113137;28;19922;-66
2023/12/11 05:31:41;;;;;;;;;;;9.70;99.90;;;;;;5112257;28;20010;-66
2023/12/11 05:34:06;;;;;;;;;;;9.70;99.90;;;;;;5113996;28;19920;-66
2023/12/11 05:36:33;;;;;;;;;;;9.70;99.90;;;;;;5111099;28;19923;-67
2023/12/11 05:38:58;;;;;;;;;;;9.70;99.90;;;;;;5114170;28;19924;-66
2023/12/11 05:41:24;;;;;;;;;;;9.70;99.90;;;;;;5115931;28;19928;-66
2023/12/11 05:43:49;;;;;;;;;;;9.70;99.90;;;;;;5111027;28;19967;-67
2023/12/11 05:46:15;;;;;;;;;;;9.60;99.90;;;;;;5115432;28;19915;-66
2023/12/11 05:48:40;;;;;;;;;;;9.60;99.90;;;;;;5110313;28;19919;-66
2023/12/11 05:51:06;;;;;;;;;;;9.60;99.90;;;;;;5111561;28;19923;-66
2023/12/11 05:53:31;;;;;;;;;;;9.60;99.90;;;;;;5113205;28;20420;-66
2023/12/11 05:55:57;;;;;;;;;;;9.60;99.90;;;;;;5111896;28;19994;-66
2023/12/11 05:58:23;;;;;;;;;;;9.50;99.90;;;;;;5113273;28;19916;-66
2023/12/11 06:00:48;;;;;;;;;;;9.50;99.90;;;;;;5096088;28;19989;-66
2023/12/11 06:03:14;;;;;;;;;;;9.50;99.90;;;;;;5120414;27;20438;-66
2023/12/11 06:05:39;;;;;;;;;;;9.50;99.90;;;;;;5113813;27;19987;-65
2023/12/11 06:08:05;;;;;;;;;;;9.50;99.90;;;;;;5114333;27;20309;-66
2023/12/11 06:10:31;;;;;;;;;;;9.40;99.90;;;;;;5117569;27;19915;-66
2023/12/11 06:12:56;;;;;;;;;;;9.40;99.90;;;;;;5114386;27;20002;-66
2023/12/11 06:15:22;;;;;;;;;;;9.40;99.90;;;;;;5118635;27;19934;-65
2023/12/11 06:17:48;;;;;;;;;;;9.40;99.90;;;;;;5115655;27;19922;-65
2023/12/11 06:20:13;;;;;;;;;;;9.40;99.90;;;;;;5116732;27;19962;-66
2023/12/11 06:22:39;;;;;;;;;;;9.40;99.90;;;;;;5121908;27;19919;-66
2023/12/11 06:25:04;;;;;;;;;;;9.50;99.90;;;;;;5116391;27;19915;-66
2023/12/11 06:27:30;;;;;;;;;;;9.50;99.90;;;;;;5111035;27;19923;-66
2023/12/11 06:29:55;;;;;;;;;;;9.50;99.90;;;;;;5114244;27;20310;-66
2023/12/11 06:32:21;;;;;;;;;;;9.50;99.90;;;;;;5113198;27;20297;-66
2023/12/11 06:34:46;;;;;;;;;;;9.50;99.90;;;;;;5109164;27;20485;-66
2023/12/11 06:37:12;;;;;;;;;;;9.50;99.90;;;;;;5115311;27;20352;-66
2023/12/11 06:39:37;;;;;;;;;;;9.50;99.90;;;;;;5113843;27;19964;-66
2023/12/11 06:42:03;;;;;;;;;;;9.60;99.90;;;;;;5115526;27;19915;-66
2023/12/11 06:44:29;;;;;;;;;;;9.50;99.90;;;;;;5115261;27;19923;-66
2023/12/11 06:46:54;;;;;;;;;;;9.50;99.90;;;;;;5114768;27;19924;-66
2023/12/11 06:49:20;;;;;;;;;;;9.60;99.90;;;;;;5112802;27;21072;-66
2023/12/11 06:51:46;;;;;;;;;;;9.50;99.90;;;;;;5113003;27;19919;-66
2023/12/11 06:54:12;;;;;;;;;;;9.60;99.90;;;;;;5117121;27;19920;-66
2023/12/11 06:56:37;;;;;;;;;;;9.60;99.90;;;;;;5114477;27;20112;-66
2023/12/11 06:59:03;;;;;;;;;;;9.50;99.90;;;;;;5117884;27;19960;-66
2023/12/11 07:01:29;;;;;;;;;;;9.60;99.90;;;;;;5114907;27;20398;-66
2023/12/11 07:03:55;;;;;;;;;;;9.60;99.90;;;;;;5107757;27;19916;-65
2023/12/11 07:06:21;;;;;;;;;;;9.60;99.90;;;;;;5115413;27;19934;-66
2023/12/11 07:08:46;;;;;;;;;;;9.60;99.90;;;;;;5108243;27;19920;-66
2023/12/11 07:11:12;;;;;;;;;;;9.60;99.90;;;;;;5114330;27;19923;-65
2023/12/11 07:13:39;;;;;;;;;;;9.50;99.90;;;;;;5110567;27;19974;-66
2023/12/11 07:16:05;;;;;;;;;;;9.50;99.90;;;;;;5111346;27;20381;-67
2023/12/11 07:18:30;;;;;;;;;;;9.50;99.90;;;;;;5115111;27;19915;-66
2023/12/11 07:20:56;;;;;;;;;;;9.50;99.90;;;;;;5114259;27;19974;-66
2023/12/11 07:23:21;;;;;;;;;;;9.50;99.90;;;;;;5114320;27;19930;-66
2023/12/11 07:25:47;;;;;;;;;;;9.50;99.90;;;;;;5114755;27;20032;-65
2023/12/11 07:28:13;;;;;;;;;;;9.50;99.90;;;;;;5116740;27;19922;-66
2023/12/11 07:30:39;;;;;;;;;;;9.50;99.90;;;;;;5112049;27;19915;-66
2023/12/11 07:33:05;;;;;;;;;;;9.40;99.90;;;;;;5108678;27;19961;-66
2023/12/11 07:35:30;;;;;;;;;;;9.40;99.90;;;;;;5110197;27;20302;-66
2023/12/11 07:37:56;;;;;;;;;;;9.40;99.90;;;;;;5113764;27;19923;-66
2023/12/11 07:40:21;;;;;;;;;;;9.40;99.90;;;;;;5109256;27;19931;-66
2023/12/11 07:42:47;;;;;;;;;;;9.40;99.90;;;;;;5112809;27;19923;-66
2023/12/11 07:45:12;;;;;;;;;;;9.30;99.90;;;;;;5103846;27;19916;-66
2023/12/11 07:47:38;;;;;;;;;;;9.40;99.90;;;;;;5106219;27;19915;-66
2023/12/11 07:50:04;;;;;;;;;;;9.30;99.90;;;;;;5102899;27;19924;-65
2023/12/11 07:52:30;;;;;;;;;;;9.30;99.90;;;;;;5104316;27;19915;-65
2023/12/11 07:54:56;;;;;;;;;;;9.30;99.90;;;;;;5106891;27;20503;-65
2023/12/11 07:57:23;;;;;;;;;;;9.30;99.90;;;;;;5113004;27;20013;-65
2023/12/11 07:59:49;;;;;;;;;;;9.20;99.90;;;;;;5107580;27;20329;-65
2023/12/11 08:02:15;;;;;;;;;;;9.20;99.90;;;;;;5110381;27;19923;-66
2023/12/11 08:04:40;;;;;;;;;;;9.20;99.90;;;;;;5103675;27;19984;-64
2023/12/11 08:07:06;;;;;;;;;;;9.20;99.90;;;;;;5110820;27;19920;-64
2023/12/11 08:09:40;;;;;;;;;;;9.20;99.90;;;;;;5114578;27;20350;-66
2023/12/11 08:12:06;;;;;;;;;;;9.20;99.90;;;;;;5112959;27;19923;-64
2023/12/11 08:14:32;;;;;;;;;;;9.20;99.90;;;;;;5114046;27;19920;-63
2023/12/11 08:16:58;;;;;;;;;;;9.20;99.90;;;;;;5108899;27;19954;-63
2023/12/11 08:19:24;;;;;;;;;;;9.20;99.90;;;;;;5113075;27;20014;-62
2023/12/11 08:21:49;;;;;;;;;;;9.20;99.90;;;;;;5094597;27;20009;-62
2023/12/11 08:24:16;;;;;;;;;;;9.20;99.90;;;;;;5098720;27;19967;-62
2023/12/11 08:26:42;;;;;;;;;;;9.20;99.90;;;;;;5105933;27;19941;-63
2023/12/11 08:29:07;;;;;;;;;;;9.20;99.90;;;;;;5108018;27;20216;-62
2023/12/11 08:31:33;;;;;;;;;;;9.20;99.90;;;;;;5106338;27;20294;-64
2023/12/11 08:33:58;;;;;;;;;;;9.20;99.90;;;;;;5108882;27;20374;-63
2023/12/11 08:36:24;;;;;;;;;;;9.20;99.90;;;;;;5108463;27;20890;-63
2023/12/11 08:38:49;;;;;;;;;;;9.20;99.90;;;;;;5105576;28;19920;-62
2023/12/11 08:41:15;;;;;;;;;;;9.20;99.90;;;;;;5089354;28;19930;-63
2023/12/11 08:43:41;;;;;;;;;;;9.20;99.90;;;;;;5104388;28;19920;-64
2023/12/11 08:46:07;;;;;;;;;;;9.30;99.90;;;;;;5106474;28;19926;-63
2023/12/11 08:48:32;;;;;;;;;;;9.20;99.90;;;;;;5109469;28;20010;-64
2023/12/11 08:50:58;;;;;;;;;;;9.20;99.90;;;;;;5107901;28;20014;-63
2023/12/11 08:53:23;;;;;;;;;;;9.20;99.90;;;;;;5107473;28;20161;-63
2023/12/11 08:55:49;;;;;;;;;;;9.20;99.90;;;;;;5102455;28;19975;-62
2023/12/11 08:58:15;;;;;;;;;;;9.20;99.90;;;;;;5109553;28;20290;-63
2023/12/11 09:00:41;;;;;;;;;;;9.20;99.90;;;;;;5089346;28;19992;-64
2023/12/11 09:03:07;;;;;;;;;;;9.20;99.90;;;;;;5104660;28;19999;-63
2023/12/11 09:05:32;;;;;;;;;;;9.20;99.90;;;;;;5103599;28;20354;-63
2023/12/11 09:07:58;;;;;;;;;;;9.20;99.90;;;;;;5102470;28;19961;-62
2023/12/11 09:10:23;;;;;;;;;;;9.20;99.90;;;;;;5100544;28;20514;-61
2023/12/11 09:12:49;;;;;;;;;;;9.20;99.90;;;;;;5101894;28;20360;-64
2023/12/11 09:15:14;;;;;;;;;;;9.20;99.90;;;;;;5101425;28;19924;-63
2023/12/11 09:17:41;;;;;;;;;;;9.20;99.90;;;;;;5103771;28;20472;-64
2023/12/11 09:20:08;;;;;;;;;;;9.20;99.90;;;;;;5097877;28;19969;-62
2023/12/11 09:22:34;;;;;;;;;;;9.10;99.90;;;;;;5102178;28;20160;-62
2023/12/11 09:24:59;;;;;;;;;;;9.20;99.90;;;;;;5106835;28;19919;-63
2023/12/11 09:27:25;;;;;;;;;;;9.20;99.90;;;;;;5101787;28;20310;-62
2023/12/11 09:29:50;;;;;;;;;;;9.20;99.90;;;;;;5105330;28;19967;-62
2023/12/11 09:32:16;;;;;;;;;;;9.20;99.90;;;;;;5103658;28;20001;-61
2023/12/11 09:34:42;;;;;;;;;;;9.20;99.90;;;;;;5106657;27;20014;-62
2023/12/11 09:37:07;;;;;;;;;;;9.20;99.90;;;;;;5107769;27;19923;-62
2023/12/11 09:39:33;;;;;;;;;;;9.20;99.90;;;;;;5107802;27;19922;-62
2023/12/11 09:41:59;;;;;;;;;;;9.20;99.90;;;;;;5110570;27;19916;-63
2023/12/11 09:44:26;;;;;;;;;;;9.30;99.90;;;;;;5114189;27;20010;-62
2023/12/11 09:46:52;;;;;;;;;;;9.30;99.90;;;;;;5090994;28;20227;-62
2023/12/11 09:49:18;;;;;;;;;;;9.30;99.90;;;;;;5107232;27;19946;-63
2023/12/11 09:51:43;;;;;;;;;;;9.30;99.90;;;;;;5112318;27;20433;-63
2023/12/11 09:54:09;;;;;;;;;;;9.40;99.90;;;;;;5103059;27;19934;-63
2023/12/11 09:56:35;;;;;;;;;;;9.30;99.90;;;;;;5114783;27;20373;-63
2023/12/11 09:59:02;;;;;;;;;;;9.30;99.90;;;;;;5112042;27;20364;-63
2023/12/11 10:01:28;;;;;;;;;;;9.30;99.90;;;;;;5112704;27;19923;-62
2023/12/11 10:03:53;;;;;;;;;;;9.30;99.90;;;;;;5109651;27;19919;-62
2023/12/11 10:06:19;;;;;;;;;;;9.30;99.90;;;;;;5093303;27;19947;-62
2023/12/11 10:08:47;;;;;;;;;;;9.30;99.90;;;;;;5112906;27;19951;-62
2023/12/11 10:11:17;;;;;;;;;;;9.30;99.90;;;;;;5110071;27;19924;-61
2023/12/11 10:13:43;;;;;;;;;;;9.30;99.90;;;;;;5111218;27;20450;-63
2023/12/11 10:16:29;;;;;;;;;;;9.30;99.90;;;;;;5111729;27;19916;-64
2023/12/11 10:18:55;;;;;;;;;;;9.30;99.90;;;;;;5111751;27;20359;-63
2023/12/11 10:21:24;;;;;;;;;;;9.40;99.90;;;;;;5112729;27;19968;-62
2023/12/11 10:24:14;;;;;;;;;;;9.40;99.90;;;;;;5102724;27;20003;-62
2023/12/11 10:26:44;;;;;;;;;;;9.40;99.90;;;;;;5110678;27;20031;-62
2023/12/11 10:29:17;;;;;;;;;;;9.40;99.90;;;;;;5103401;27;19923;-63
2023/12/11 10:31:42;;;;;;;;;;;9.50;99.90;;;;;;5090274;28;20330;-61
2023/12/11 10:34:08;;;;;;;;;;;9.40;99.90;;;;;;5106291;27;19920;-62
2023/12/11 10:36:34;;;;;;;;;;;9.50;99.90;;;;;;5111490;27;19962;-62
2023/12/11 10:39:08;;;;;;;;;;;9.50;99.90;;;;;;5105907;27;19916;-63
2023/12/11 10:41:34;;;;;;;;;;;9.50;99.90;;;;;;5108458;27;20062;-63
2023/12/11 10:43:59;;;;;;;;;;;9.40;99.90;;;;;;5108988;27;20349;-62
2023/12/11 10:46:25;;;;;;;;;;;9.50;99.90;;;;;;5108561;27;20461;-61
2023/12/11 10:48:51;;;;;;;;;;;9.50;99.90;;;;;;5108670;27;20002;-62
2023/12/11 10:51:17;;;;;;;;;;;9.50;99.90;;;;;;5107981;27;20320;-62
2023/12/11 10:53:44;;;;;;;;;;;9.50;99.90;;;;;;5109482;27;19981;-62
2023/12/11 10:56:09;;;;;;;;;;;9.50;99.90;;;;;;5092402;27;19971;-63
2023/12/11 10:58:35;;;;;;;;;;;9.50;99.90;;;;;;5104649;27;19924;-61
2023/12/11 11:01:01;;;;;;;;;;;9.50;99.90;;;;;;5105918;27;20449;-62
2023/12/11 11:03:28;;;;;;;;;;;9.50;99.90;;;;;;5108312;27;19980;-63
2023/12/11 11:05:55;;;;;;;;;;;9.50;99.90;;;;;;5107896;27;19916;-63
2023/12/11 11:08:48;;;;;;;;;;;9.40;99.90;;;;;;5110722;27;20018;-63
2023/12/11 11:11:22;;;;;;;;;;;9.40;99.90;;;;;;5108013;27;19919;-62
2023/12/11 11:14:06;;;;;;;;;;;9.40;99.90;;;;;;5110625;27;20346;-61
2023/12/11 11:16:50;;;;;;;;;;;9.30;99.90;;;;;;5108824;27;19921;-61
2023/12/11 11:19:16;;;;;;;;;;;9.30;99.90;;;;;;5109624;27;19916;-61
2023/12/11 11:21:57;;;;;;;;;;;9.30;99.90;;;;;;5106675;27;19975;-63
2023/12/11 11:24:26;;;;;;;;;;;9.30;99.90;;;;;;5102244;27;20416;-61
2023/12/11 11:26:52;;;;;;;;;;;9.30;99.90;;;;;;5108229;27;19998;-62
2023/12/11 11:29:36;;;;;;;;;;;9.30;99.90;;;;;;5108237;27;20397;-62
2023/12/11 11:32:01;;;;;;;;;;;9.30;99.90;;;;;;5106564;27;19969;-62
2023/12/11 11:34:47;;;;;;;;;;;9.30;99.90;;;;;;5107816;27;19927;-62
2023/12/11 11:37:20;;;;;;;;;;;9.30;99.90;;;;;;5108646;27;20413;-63
2023/12/11 11:39:55;;;;;;;;;;;9.30;99.90;;;;;;5110844;27;20416;-61
2023/12/11 11:42:21;;;;;;;;;;;9.30;99.90;;;;;;5110917;27;19923;-62
2023/12/11 11:44:46;;;;;;;;;;;9.30;99.90;;;;;;5112731;27;19926;-62
2023/12/11 11:47:17;;;;;;;;;;;9.30;99.90;;;;;;5093294;27;19919;-62
2023/12/11 11:49:42;;;;;;;;;;;9.40;99.90;;;;;;5114202;27;20022;-61
2023/12/11 11:52:10;;;;;;;;;;;9.40;99.90;;;;;;5102054;27;20046;-62
2023/12/11 11:54:36;;;;;;;;;;;9.40;99.90;;;;;;5106488;27;20338;-62
2023/12/11 11:57:02;;;;;;;;;;;9.30;99.90;;;;;;5105861;27;19927;-63
2023/12/11 11:59:28;;;;;;;;;;;9.30;99.90;;;;;;5111465;27;20425;-62
2023/12/11 12:02:19;;;;;;;;;;;9.20;99.90;;;;;;5104077;27;19959;-63
2023/12/11 12:04:45;;;;;;;;;;;9.20;99.90;;;;;;5104880;28;19927;-61
2023/12/11 12:07:10;;;;;;;;;;;9.20;99.90;;;;;;5085120;28;19923;-61
2023/12/11 12:09:36;;;;;;;;;;;9.20;99.90;;;;;;5105624;27;19927;-63
2023/12/11 12:12:04;;;;;;;;;;;9.20;99.90;;;;;;5110917;27;19915;-63
2023/12/11 12:14:29;;;;;;;;;;;9.10;99.90;;;;;;5109029;27;19919;-62
2023/12/11 12:16:55;;;;;;;;;;;9.10;99.90;;;;;;5111763;27;20293;-61
2023/12/11 12:19:31;;;;;;;;;;;9.20;99.90;;;;;;5107900;27;19924;-63
2023/12/11 12:21:58;;;;;;;;;;;9.20;99.90;;;;;;5118443;27;19926;-63
2023/12/11 12:24:24;;;;;;;;;;;9.20;99.90;;;;;;5111847;27;19916;-61
2023/12/11 12:27:10;;;;;;;;;;;9.30;99.90;;;;;;5110899;27;19961;-61
2023/12/11 12:29:35;;;;;;;;;;;9.20;99.90;;;;;;5106190;27;19922;-62
2023/12/11 12:32:01;;;;;;;;;;;9.30;99.90;;;;;;5105134;27;19916;-60
2023/12/11 12:34:29;;;;;;;;;;;9.20;99.90;;;;;;5111387;27;19931;-63
2023/12/11 12:36:55;;;;;;;;;;;9.20;99.90;;;;;;5109995;27;20377;-62
2023/12/11 12:39:21;;;;;;;;;;;9.20;99.90;;;;;;5111980;27;19923;-63
2023/12/11 12:41:49;;;;;;;;;;;9.20;99.90;;;;;;5108477;27;19973;-62
2023/12/11 12:44:17;;;;;;;;;;;9.20;99.90;;;;;;5103570;27;19919;-63
2023/12/11 12:46:43;;;;;;;;;;;9.20;99.90;;;;;;5098894;27;19930;-63
2023/12/11 12:49:08;;;;;;;;;;;9.20;99.90;;;;;;5099793;28;19919;-63
2023/12/11 12:51:42;;;;;;;;;;;9.20;99.90;;;;;;5103585;28;19916;-61
2023/12/11 12:54:08;;;;;;;;;;;9.20;99.90;;;;;;5112711;28;20429;-62
2023/12/11 12:56:33;;;;;;;;;;;9.20;99.90;;;;;;5114081;28;19975;-60
2023/12/11 12:59:01;;;;;;;;;;;9.20;99.90;;;;;;5100420;28;19923;-63
2023/12/11 13:01:27;;;;;;;;;;;9.20;99.90;;;;;;5094617;28;19974;-62
2023/12/11 13:03:58;;;;;;;;;;;9.20;99.90;;;;;;5106545;28;20642;-63
2023/12/11 13:06:27;;;;;;;;;;;9.10;99.90;;;;;;5109892;28;20690;-62
2023/12/11 13:08:52;;;;;;;;;;;9.10;99.90;;;;;;5105134;27;19930;-62
2023/12/11 13:11:18;;;;;;;;;;;9.10;99.90;;;;;;5107369;27;19920;-63
2023/12/11 13:13:54;;;;;;;;;;;9.10;99.90;;;;;;5105161;27;19980;-61
2023/12/11 13:16:20;;;;;;;;;;;9.10;99.90;;;;;;5108271;27;20204;-61
2023/12/11 13:18:49;;;;;;;;;;;9.10;99.90;;;;;;5106536;27;19969;-61
2023/12/11 13:21:15;;;;;;;;;;;9.10;99.90;;;;;;5107514;27;19915;-61
2023/12/11 13:23:40;;;;;;;;;;;9.10;99.90;;;;;;5106579;27;19976;-61
2023/12/11 13:26:06;;;;;;;;;;;9.10;99.90;;;;;;5110455;27;19927;-62
2023/12/11 13:28:31;;;;;;;;;;;9.00;99.90;;;;;;5108243;27;20309;-61
2023/12/11 13:30:57;;;;;;;;;;;9.00;99.90;;;;;;5104922;27;19923;-62
2023/12/11 13:33:22;;;;;;;;;;;9.00;99.90;;;;;;5106738;27;20013;-61
2023/12/11 13:35:50;;;;;;;;;;;8.90;99.90;;;;;;5107668;27;19916;-61
2023/12/11 13:38:15;;;;;;;;;;;8.90;99.90;;;;;;5109076;27;20311;-60
2023/12/11 13:40:41;;;;;;;;;;;8.90;99.90;;;;;;5111404;27;19922;-61
2023/12/11 13:43:07;;;;;;;;;;;8.90;99.90;;;;;;5108184;27;19920;-61
2023/12/11 13:45:32;;;;;;;;;;;9.10;99.90;;;;;;5109182;27;19931;-61
2023/12/11 13:47:58;;;;;;;;;;;9.30;99.90;;;;;;5108244;27;19916;-61
2023/12/11 13:50:23;;;;;;;;;;;9.50;99.90;;;;;;5107871;27;20342;-61
2023/12/11 13:52:49;;;;;;;;;;;9.60;99.90;;;;;;5110687;27;20122;-61
2023/12/11 13:55:15;;;;;;;;;;;9.50;99.90;;;;;;5107739;27;19919;-63
2023/12/11 13:57:40;;;;;;;;;;;9.50;99.90;;;;;;5112805;27;19926;-61
2023/12/11 14:00:06;;;;;;;;;;;9.50;99.90;;;;;;5108127;27;19916;-61
2023/12/11 14:02:32;;;;;;;;;;;9.60;99.90;;;;;;5113060;27;19959;-61
2023/12/11 14:04:57;;;;;;;;;;;9.70;99.90;;;;;;5109314;27;19915;-61
2023/12/11 14:07:23;;;;;;;;;;;9.80;99.90;;;;;;5112426;27;20879;-61
2023/12/11 14:09:48;;;;;;;;;;;9.90;99.90;;;;;;5108638;27;20305;-61